Time;durP1;ratioP1;P1;durP2;ratioP2;P2;SDS_P1;SDS_P2;PMS_P1;PMS_P2;Temp;Humidity;BMP_temperature;BMP_pressure;BME280_temperature;BME280_humidity;BME280_pressure;Samples;Min_cycle;Max_cycle;Signal;HPM_P1;HPM_P2
2023/03/03 00:02:04;;;;;;;0.40;0.40;;;;;;;17.86;38.52;101887.59;5127813;27;20468;-48
2023/03/03 00:04:29;;;;;;;0.40;0.40;;;;;;;17.86;38.70;101880.16;5135569;27;20115;-48
2023/03/03 00:06:55;;;;;;;0.40;0.40;;;;;;;17.87;38.61;101881.00;5110000;27;20048;-48
2023/03/03 00:09:21;;;;;;;0.35;0.35;;;;;;;17.86;38.54;101876.56;5122587;28;20491;-48
2023/03/03 00:11:51;;;;;;;0.30;0.30;;;;;;;17.87;38.56;101881.00;5126680;27;20047;-49
2023/03/03 00:14:22;;;;;;;0.40;0.40;;;;;;;17.85;38.60;101881.25;5138165;27;20475;-50
2023/03/03 00:16:48;;;;;;;0.30;0.30;;;;;;;17.84;38.55;101882.34;5125026;27;20130;-48
2023/03/03 00:19:17;;;;;;;0.30;0.30;;;;;;;17.86;38.69;101882.06;5138620;27;20103;-49
2023/03/03 00:21:45;;;;;;;0.30;0.30;;;;;;;17.85;38.54;101878.50;5147058;27;20046;-48
2023/03/03 00:24:35;;;;;;;0.30;0.30;;;;;;;17.85;38.67;101894.19;5122040;28;20047;-48
2023/03/03 00:27:16;;;;;;;0.32;0.32;;;;;;;17.85;38.59;101896.94;5124581;27;20173;-48
2023/03/03 00:29:58;;;;;;;0.30;0.30;;;;;;;17.86;38.50;101895.84;5126808;27;20269;-48
2023/03/03 00:32:37;;;;;;;0.40;0.40;;;;;;;17.86;38.70;101898.63;5124648;28;20047;-49
2023/03/03 00:35:34;;;;;;;0.30;0.30;;;;;;;17.85;38.45;101888.69;5110868;28;20067;-48
2023/03/03 00:38:01;;;;;;;0.30;0.30;;;;;;;17.84;38.71;101896.13;5108556;28;20035;-48
2023/03/03 00:40:36;;;;;;;0.30;0.30;;;;;;;17.85;38.70;101903.28;5126144;27;20047;-48
2023/03/03 00:43:12;;;;;;;0.38;0.38;;;;;;;17.85;38.79;101899.69;5144444;27;20047;-48
2023/03/03 00:45:43;;;;;;;0.30;0.30;;;;;;;17.85;38.52;101908.81;5127709;27;20039;-49
2023/03/03 00:48:20;;;;;;;0.30;0.30;;;;;;;17.85;38.66;101907.97;5123991;28;20047;-48
2023/03/03 00:50:46;;;;;;;0.30;0.30;;;;;;;17.85;38.50;101917.06;5107729;28;20039;-49
2023/03/03 00:53:16;;;;;;;0.40;0.40;;;;;;;17.84;38.63;101911.81;5126298;27;20047;-48
2023/03/03 00:55:42;;;;;;;0.40;0.40;;;;;;;17.85;38.67;101913.47;5125507;27;20043;-49
2023/03/03 00:58:08;;;;;;;0.40;0.40;;;;;;;17.84;38.74;101909.91;5128102;27;20491;-48
2023/03/03 01:00:35;;;;;;;0.30;0.30;;;;;;;17.85;38.58;101913.47;5127073;27;20071;-48
2023/03/03 01:03:04;;;;;;;0.30;0.30;;;;;;;17.85;38.51;101913.47;5124668;28;20572;-48
2023/03/03 01:05:30;;;;;;;0.30;0.30;;;;;;;17.83;38.60;101916.47;5126312;27;20092;-49
2023/03/03 01:07:56;;;;;;;0.30;0.30;;;;;;;17.84;38.75;101914.56;5128800;27;20451;-48
2023/03/03 01:10:21;;;;;;;0.30;0.30;;;;;;;17.84;38.59;101926.44;5125637;27;20047;-48
2023/03/03 01:12:48;;;;;;;0.30;0.30;;;;;;;17.84;38.54;101926.44;5139205;27;20409;-49
2023/03/03 01:15:14;;;;;;;0.30;0.30;;;;;;;17.84;38.59;101934.69;5131003;27;20067;-49
2023/03/03 01:17:41;;;;;;;0.40;0.40;;;;;;;17.84;38.53;101922.84;5104144;28;20070;-48
2023/03/03 01:20:09;;;;;;;0.30;0.30;;;;;;;17.83;38.53;101930.25;5115726;27;20553;-48
2023/03/03 01:22:34;;;;;;;0.32;0.32;;;;;;;17.84;38.34;101925.59;5127723;27;20081;-49
2023/03/03 01:25:02;;;;;;;0.30;0.30;;;;;;;17.84;38.74;101929.19;5131828;27;20047;-48
2023/03/03 01:27:29;;;;;;;0.20;0.20;;;;;;;17.84;38.64;101923.66;5128021;27;20082;-48
2023/03/03 01:29:55;;;;;;;0.30;0.30;;;;;;;17.83;38.73;101924.72;5139695;27;20490;-48
2023/03/03 01:32:22;;;;;;;0.30;0.30;;;;;;;17.84;38.71;101929.19;5129471;27;20130;-48
2023/03/03 01:34:48;;;;;;;0.30;0.30;;;;;;;17.82;38.65;101925.81;5136841;27;20050;-49
2023/03/03 01:37:13;;;;;;;0.30;0.30;;;;;;;17.82;38.39;101931.34;5128996;27;20422;-48
2023/03/03 01:39:39;;;;;;;0.30;0.30;;;;;;;17.83;38.52;101934.91;5128999;28;20047;-48
2023/03/03 01:42:05;;;;;;;0.52;0.52;;;;;;;17.84;38.78;101928.34;5127780;27;20437;-48
2023/03/03 01:44:30;;;;;;;0.65;0.65;;;;;;;17.83;38.72;101926.66;5136660;27;20307;-49
2023/03/03 01:47:04;;;;;;;0.35;0.35;;;;;;;17.83;38.73;101926.66;5128915;27;20051;-48
2023/03/03 01:49:34;;;;;;;0.30;0.30;;;;;;;17.83;38.56;101923.91;5127826;27;20046;-49
2023/03/03 01:52:03;;;;;;;0.30;0.30;;;;;;;17.83;38.61;101929.41;5127911;27;20427;-48
2023/03/03 01:54:34;;;;;;;0.70;0.70;;;;;;;17.83;38.56;101930.25;5127828;27;20046;-49
2023/03/03 01:57:02;;;;;;;0.40;0.40;;;;;;;17.82;38.70;101933.25;5128347;27;20047;-48
2023/03/03 01:59:32;;;;;;;0.30;0.30;;;;;;;17.83;38.65;101937.69;5105790;28;20125;-49
2023/03/03 02:01:58;;;;;;;0.38;0.38;;;;;;;17.82;38.62;101923.06;5126721;27;20466;-49
2023/03/03 02:04:25;;;;;;;0.30;0.30;;;;;;;17.82;38.60;101927.75;5121302;27;20504;-49
2023/03/03 02:06:55;;;;;;;0.30;0.30;;;;;;;17.83;38.52;101923.91;5125789;27;20050;-47
2023/03/03 02:09:36;;;;;;;0.40;0.40;;;;;;;17.82;38.60;101917.56;5135259;27;20050;-48
2023/03/03 02:12:04;;;;;;;0.40;0.40;;;;;;;17.83;38.68;101918.38;5126444;27;20079;-48
2023/03/03 02:14:30;;;;;;;0.40;0.40;;;;;;;17.82;38.62;101925.00;5126621;28;20471;-49
2023/03/03 02:16:56;;;;;;;0.32;0.32;;;;;;;17.83;38.47;101923.91;5141243;27;20046;-49
2023/03/03 02:19:36;;;;;;;0.40;0.40;;;;;;;17.82;38.60;101916.72;5135343;27;20043;-48
2023/03/03 02:22:02;;;;;;;0.32;0.32;;;;;;;17.82;38.52;101920.31;5129593;27;20499;-50
2023/03/03 02:24:34;;;;;;;1.25;0.50;;;;;;;17.82;38.71;101925.81;5121576;27;20051;-48
2023/03/03 02:27:00;;;;;;;0.30;0.30;;;;;;;17.80;38.71;101920.56;5107856;28;20040;-49
2023/03/03 02:29:25;;;;;;;0.30;0.30;;;;;;;17.82;38.64;101922.22;5123497;27;20070;-48
2023/03/03 02:31:51;;;;;;;0.40;0.40;;;;;;;17.81;38.47;101926.91;5144657;27;20061;-48
2023/03/03 02:34:17;;;;;;;0.30;0.30;;;;;;;17.81;38.96;101924.16;5123009;27;20047;-49
2023/03/03 02:36:43;;;;;;;0.40;0.40;;;;;;;17.82;38.48;101936.84;5107084;28;20382;-50
2023/03/03 02:39:15;;;;;;;0.30;0.30;;;;;;;17.81;38.66;101932.41;5116848;28;20049;-48
2023/03/03 02:41:45;;;;;;;0.30;0.30;;;;;;;17.82;38.71;101939.59;5127832;27;20047;-49
2023/03/03 02:44:16;;;;;;;0.30;0.30;;;;;;;17.82;38.60;101925.81;5111930;27;20055;-48
2023/03/03 02:46:45;;;;;;;0.40;0.40;;;;;;;17.81;38.58;101924.16;5114288;27;20043;-49
2023/03/03 02:49:13;;;;;;;0.30;0.30;;;;;;;17.81;38.73;101926.91;5117736;28;20437;-48
2023/03/03 02:51:39;;;;;;;0.30;0.30;;;;;;;17.82;38.65;101933.25;5125702;28;20046;-50
2023/03/03 02:54:06;;;;;;;0.30;0.30;;;;;;;17.81;38.74;101929.66;5120780;28;20273;-49
2023/03/03 02:56:32;;;;;;;0.30;0.30;;;;;;;17.81;38.68;101932.41;5105406;28;20071;-48
2023/03/03 02:58:58;;;;;;;0.30;0.30;;;;;;;17.80;38.71;101934.34;5114434;28;20050;-49
2023/03/03 03:01:24;;;;;;;0.57;0.40;;;;;;;17.80;38.63;101934.34;5127807;27;20387;-49
2023/03/03 03:03:49;;;;;;;0.30;0.30;;;;;;;17.80;38.72;101937.09;5129790;27;20085;-48
2023/03/03 03:06:15;;;;;;;0.30;0.30;;;;;;;17.80;38.61;101942.63;5107219;28;20419;-48
2023/03/03 03:08:41;;;;;;;0.40;0.40;;;;;;;17.80;38.71;101950.03;5123319;27;20057;-48
2023/03/03 03:11:07;;;;;;;0.30;0.30;;;;;;;17.80;38.71;101939.03;5121273;27;20091;-48
2023/03/03 03:13:33;;;;;;;0.50;0.50;;;;;;;17.80;38.66;101950.03;5147013;27;20038;-48
2023/03/03 03:15:59;;;;;;;0.32;0.32;;;;;;;17.80;38.64;101948.13;5106580;28;20047;-50
2023/03/03 03:18:26;;;;;;;0.38;0.38;;;;;;;17.80;38.67;101937.09;5123831;27;20065;-48
2023/03/03 03:20:51;;;;;;;0.30;0.30;;;;;;;17.79;38.69;101942.88;5126942;27;20055;-50
2023/03/03 03:23:17;;;;;;;0.40;0.40;;;;;;;17.80;38.59;101947.28;5128134;27;20043;-49
2023/03/03 03:25:45;;;;;;;0.30;0.30;;;;;;;17.79;38.57;101951.97;5122919;27;20051;-48
2023/03/03 03:28:12;;;;;;;0.30;0.30;;;;;;;17.79;38.53;101954.72;5106080;28;20050;-50
2023/03/03 03:30:38;;;;;;;0.30;0.30;;;;;;;17.79;38.79;101956.66;5131615;27;20510;-48
2023/03/03 03:33:04;;;;;;;0.40;0.40;;;;;;;17.79;38.76;101962.16;5127170;27;20423;-49
2023/03/03 03:35:32;;;;;;;0.40;0.40;;;;;;;17.79;38.69;101954.72;5132337;27;20483;-48
2023/03/03 03:37:57;;;;;;;0.30;0.30;;;;;;;17.79;38.70;101948.38;5125263;28;20055;-49
2023/03/03 03:40:25;;;;;;;0.30;0.30;;;;;;;17.79;38.93;101942.88;5126084;27;20453;-48
2023/03/03 03:42:52;;;;;;;0.20;0.20;;;;;;;17.80;38.62;101952.81;5125924;28;20655;-49
2023/03/03 03:45:18;;;;;;;0.30;0.30;;;;;;;17.78;38.72;101955.78;5125868;27;20067;-48
2023/03/03 03:47:43;;;;;;;0.30;0.30;;;;;;;17.79;38.69;101960.22;5130277;27;20516;-49
2023/03/03 03:50:10;;;;;;;0.35;0.35;;;;;;;17.78;38.68;101946.69;5124835;28;20051;-50
2023/03/03 03:52:36;;;;;;;0.30;0.30;;;;;;;17.80;38.88;101950.03;5107827;28;20087;-49
2023/03/03 03:55:02;;;;;;;0.40;0.40;;;;;;;17.79;38.76;101954.72;5112025;28;20074;-51
2023/03/03 03:57:28;;;;;;;0.30;0.30;;;;;;;17.79;38.75;101954.72;5104448;28;20048;-50
2023/03/03 03:59:54;;;;;;;0.30;0.30;;;;;;;17.79;38.78;101960.22;5119292;28;20553;-48
2023/03/03 04:02:19;;;;;;;0.30;0.30;;;;;;;17.79;38.70;101953.91;5126365;28;20533;-52
2023/03/03 04:04:45;;;;;;;0.30;0.30;;;;;;;17.78;38.57;101953.03;5128723;27;20074;-49
2023/03/03 04:07:11;;;;;;;0.30;0.30;;;;;;;17.79;38.70;101948.38;5108611;28;20075;-48
2023/03/03 04:09:37;;;;;;;0.50;0.50;;;;;;;17.78;38.80;101942.00;5122143;27;20069;-48
2023/03/03 04:12:03;;;;;;;0.35;0.35;;;;;;;17.79;38.58;101942.88;5130841;27;20047;-48
2023/03/03 04:14:29;;;;;;;0.30;0.30;;;;;;;17.77;38.62;101948.59;5137310;27;20080;-50
2023/03/03 04:16:55;;;;;;;0.35;0.35;;;;;;;17.79;38.62;101949.22;5126708;27;20437;-51
2023/03/03 04:19:20;;;;;;;0.40;0.40;;;;;;;17.79;38.70;101948.38;5111841;27;20138;-52
2023/03/03 04:21:46;;;;;;;0.75;0.50;;;;;;;17.78;38.75;101947.50;5125983;27;20108;-50
2023/03/03 04:24:12;;;;;;;0.40;0.40;;;;;;;17.78;38.57;101946.69;5121033;27;20449;-50
2023/03/03 04:26:37;;;;;;;0.30;0.30;;;;;;;17.79;38.87;101959.41;5120293;27;20047;-49
2023/03/03 04:29:03;;;;;;;0.30;0.30;;;;;;;17.78;38.72;101954.94;5126154;27;20050;-49
2023/03/03 04:31:29;;;;;;;0.30;0.30;;;;;;;17.78;38.68;101955.78;5125222;27;20051;-50
2023/03/03 04:33:55;;;;;;;0.50;0.50;;;;;;;17.79;38.61;101959.41;5131081;27;20506;-49
2023/03/03 04:36:20;;;;;;;0.22;0.22;;;;;;;17.79;38.63;101959.41;5135739;27;20054;-50
2023/03/03 04:38:46;;;;;;;0.30;0.30;;;;;;;17.79;38.81;101967.66;5125537;27;20062;-49
2023/03/03 04:41:12;;;;;;;0.30;0.30;;;;;;;17.78;38.58;101960.47;5124470;28;20089;-56
2023/03/03 04:43:38;;;;;;;0.30;0.30;;;;;;;17.77;38.56;101954.13;5107842;28;20047;-49
2023/03/03 04:46:04;;;;;;;0.40;0.40;;;;;;;17.77;39.03;101961.56;5126428;28;20100;-49
2023/03/03 04:48:29;;;;;;;0.30;0.30;;;;;;;17.78;38.81;101957.72;5131977;27;20383;-50
2023/03/03 04:50:55;;;;;;;0.35;0.35;;;;;;;17.78;38.62;101965.97;5125936;28;20047;-52
2023/03/03 04:53:21;;;;;;;0.40;0.40;;;;;;;17.77;38.65;101962.38;5124166;28;20173;-49
2023/03/03 04:55:49;;;;;;;0.40;0.40;;;;;;;17.77;38.57;101969.81;5125825;27;20039;-48
2023/03/03 04:58:15;;;;;;;;;;;;;;;17.77;38.76;101967.06;5126576;27;20506;-49
2023/03/03 05:00:41;;;;;;;0.40;0.40;;;;;;;17.77;38.80;101969.81;5125055;27;19920;-49
2023/03/03 05:03:07;;;;;;;0.30;0.30;;;;;;;17.77;38.82;101964.31;5125830;27;20057;-51
2023/03/03 05:05:33;;;;;;;0.30;0.30;;;;;;;17.77;38.65;101969.81;5127639;27;20047;-53
2023/03/03 05:07:59;;;;;;;0.32;0.32;;;;;;;17.76;38.71;101974.50;5129360;27;20100;-50
2023/03/03 05:10:24;;;;;;;0.40;0.40;;;;;;;17.77;38.64;101975.31;5124163;28;20054;-51
2023/03/03 05:12:50;;;;;;;0.30;0.30;;;;;;;17.77;38.72;101978.91;5128441;27;20051;-51
2023/03/03 05:15:16;;;;;;;0.38;0.38;;;;;;;17.76;38.84;101977.25;5129961;27;20048;-48
2023/03/03 05:17:41;;;;;;;0.30;0.30;;;;;;;17.76;38.68;101977.25;5109174;28;20047;-50
2023/03/03 05:20:09;;;;;;;0.30;0.30;;;;;;;17.75;38.60;101981.09;5119839;28;20103;-50
2023/03/03 05:22:34;;;;;;;0.20;0.20;;;;;;;17.76;38.76;101985.50;5130110;27;20444;-50
2023/03/03 05:25:00;;;;;;;0.57;0.57;;;;;;;17.77;38.66;101991.84;5117059;27;20495;-51
2023/03/03 05:27:26;;;;;;;0.40;0.40;;;;;;;17.77;38.63;101983.59;5113228;27;20043;-50
2023/03/03 05:29:51;;;;;;;0.30;0.30;;;;;;;17.76;38.58;101984.69;5136999;27;20200;-49
2023/03/03 05:32:17;;;;;;;0.30;0.30;;;;;;;17.77;38.45;101989.09;5128257;28;20434;-49
2023/03/03 05:34:43;;;;;;;0.30;0.30;;;;;;;17.76;38.71;101981.94;5127631;27;20054;-48
2023/03/03 05:37:08;;;;;;;0.40;0.40;;;;;;;17.77;38.80;101989.09;5131244;27;20099;-49
2023/03/03 05:39:34;;;;;;;0.40;0.40;;;;;;;17.76;38.59;101987.44;5128730;27;20360;-49
2023/03/03 05:42:00;;;;;;;0.30;0.30;;;;;;;17.76;38.67;101985.50;5128471;27;20047;-50
2023/03/03 05:44:26;;;;;;;0.30;0.30;;;;;;;17.77;38.64;101989.09;5118931;28;20067;-48
2023/03/03 05:46:52;;;;;;;0.30;0.30;;;;;;;17.75;38.69;101986.59;5108001;28;20416;-50
2023/03/03 05:49:17;;;;;;;0.30;0.30;;;;;;;17.76;38.68;101993.78;5115580;27;20337;-50
2023/03/03 05:51:43;;;;;;;0.40;0.40;;;;;;;17.76;38.68;101992.94;5131529;27;20058;-51
2023/03/03 05:54:09;;;;;;;0.30;0.30;;;;;;;17.76;38.68;101995.69;5122372;27;20507;-51
2023/03/03 05:56:34;;;;;;;0.38;0.38;;;;;;;17.76;38.72;101990.19;5107450;28;20210;-49
2023/03/03 05:59:00;;;;;;;0.50;0.50;;;;;;;17.75;38.71;101983.84;5109228;28;20046;-49
2023/03/03 06:01:27;;;;;;;0.40;0.40;;;;;;;17.75;38.78;101986.59;5127777;27;20051;-49
2023/03/03 06:03:53;;;;;;;0.40;0.40;;;;;;;17.76;38.52;101996.53;5106406;28;20142;-50
2023/03/03 06:06:18;;;;;;;0.40;0.40;;;;;;;17.76;38.72;101996.53;5121713;27;20531;-54
2023/03/03 06:08:44;;;;;;;0.30;0.30;;;;;;;17.76;38.52;101995.69;5136566;27;20042;-50
2023/03/03 06:11:10;;;;;;;0.40;0.40;;;;;;;17.76;38.64;102006.72;5111614;27;20051;-48
2023/03/03 06:13:36;;;;;;;0.40;0.40;;;;;;;17.76;38.63;102009.47;5108582;27;20297;-52
2023/03/03 06:16:01;;;;;;;0.30;0.30;;;;;;;17.76;38.60;102007.56;5107526;27;20380;-49
2023/03/03 06:18:27;;;;;;;0.30;0.30;;;;;;;17.74;38.68;102017.97;5103674;28;20051;-49
2023/03/03 06:20:53;;;;;;;0.30;0.30;;;;;;;17.76;38.79;102017.75;5109948;28;20336;-49
2023/03/03 06:23:19;;;;;;;0.30;0.30;;;;;;;17.76;38.65;102031.53;5101949;27;20078;-50
2023/03/03 06:25:46;;;;;;;0.32;0.32;;;;;;;17.76;38.66;102032.34;5114263;27;20094;-51
2023/03/03 06:28:13;;;;;;;0.40;0.40;;;;;;;17.75;38.68;102027.94;5114905;27;20071;-48
2023/03/03 06:30:39;;;;;;;0.35;0.35;;;;;;;17.75;38.68;102036.19;5120320;27;20130;-52
2023/03/03 06:33:04;;;;;;;0.40;0.40;;;;;;;17.69;38.21;102037.13;5110548;27;20079;-57
2023/03/03 06:35:30;;;;;;;0.30;0.30;;;;;;;17.74;39.05;102033.66;5127561;27;20047;-51
2023/03/03 06:37:56;;;;;;;0.40;0.40;;;;;;;17.76;39.12;102037.88;5128956;27;20166;-48
2023/03/03 06:40:21;;;;;;;0.30;0.30;;;;;;;17.78;39.15;102041.19;5127079;27;20498;-50
2023/03/03 06:42:47;;;;;;;0.30;0.30;;;;;;;17.77;39.06;102045.03;5113322;27;20055;-48
2023/03/03 06:45:13;;;;;;;0.30;0.30;;;;;;;17.77;39.15;102041.44;5107584;27;20544;-52
2023/03/03 06:47:39;;;;;;;0.40;0.40;;;;;;;17.78;39.17;102045.88;5106683;27;20036;-52
2023/03/03 06:50:05;;;;;;;0.30;0.30;;;;;;;17.78;39.08;102057.72;5107859;27;20176;-52
2023/03/03 06:52:31;;;;;;;0.30;0.30;;;;;;;17.77;39.08;102052.47;5117052;27;20070;-49
2023/03/03 06:55:00;;;;;;;0.30;0.30;;;;;;;17.78;39.17;102062.41;5108663;27;20050;-49
2023/03/03 06:57:31;;;;;;;0.40;0.40;;;;;;;17.81;39.24;102056.41;5102371;27;20200;-50
2023/03/03 07:00:01;;;;;;;0.40;0.40;;;;;;;17.76;38.93;102059.91;5101206;27;20506;-50
2023/03/03 07:02:27;;;;;;;0.30;0.30;;;;;;;17.80;39.00;102065.78;5101821;27;20047;-49
2023/03/03 07:04:54;;;;;;;0.30;0.30;;;;;;;17.82;39.17;102063.59;5105046;27;20058;-49
2023/03/03 07:07:23;;;;;;;0.30;0.30;;;;;;;17.81;39.03;102067.44;5109701;27;20071;-48
2023/03/03 07:09:52;;;;;;;0.70;0.70;;;;;;;17.82;39.05;102074.63;5111180;27;20523;-49
2023/03/03 07:12:21;;;;;;;0.35;0.35;;;;;;;17.83;38.93;102070.78;5104410;27;20070;-48
2023/03/03 07:14:54;;;;;;;0.30;0.30;;;;;;;17.83;39.13;102069.94;5087556;27;20047;-49
2023/03/03 07:17:21;;;;;;;0.30;0.30;;;;;;;17.84;39.10;102066.13;5109342;27;20518;-49
2023/03/03 07:19:47;;;;;;;0.30;0.30;;;;;;;17.85;39.12;102062.28;5100228;27;20430;-47
2023/03/03 07:22:17;;;;;;;0.30;0.30;;;;;;;17.85;39.06;102065.03;5101799;27;20051;-48
2023/03/03 07:24:45;;;;;;;0.30;0.30;;;;;;;17.85;38.98;102070.56;5107212;27;20458;-48
2023/03/03 07:27:17;;;;;;;0.30;0.30;;;;;;;17.85;39.06;102081.56;5106465;27;20488;-48
2023/03/03 07:29:45;;;;;;;0.30;0.30;;;;;;;17.86;39.10;102083.25;5097351;27;20096;-48
2023/03/03 07:32:25;;;;;;;0.30;0.30;;;;;;;17.87;39.03;102082.97;5109387;27;20391;-49
2023/03/03 07:34:53;;;;;;;0.30;0.30;;;;;;;17.89;38.82;102083.59;5106052;27;20053;-48
2023/03/03 07:37:28;;;;;;;0.20;0.20;;;;;;;17.91;38.98;102080.59;5088120;27;20082;-49
2023/03/03 07:39:54;;;;;;;0.35;0.35;;;;;;;17.89;39.01;102086.34;5110869;27;20043;-48
2023/03/03 07:42:27;;;;;;;0.35;0.35;;;;;;;17.88;38.93;102090.19;5126267;27;20127;-48
2023/03/03 07:44:55;;;;;;;0.30;0.30;;;;;;;17.88;39.19;102087.44;5120797;27;20094;-48
2023/03/03 07:47:27;;;;;;;0.30;0.30;;;;;;;17.88;39.21;102097.63;5103656;27;20226;-49
2023/03/03 07:49:55;;;;;;;0.30;0.30;;;;;;;17.89;39.09;102091.03;5099233;27;20155;-49
2023/03/03 07:52:39;;;;;;;0.30;0.30;;;;;;;17.88;39.21;102103.97;5102898;27;20096;-50
2023/03/03 07:55:40;;;;;;;0.30;0.30;;;;;;;17.89;39.02;102102.06;5107235;27;20055;-49
2023/03/03 07:58:20;;;;;;;0.30;0.30;;;;;;;17.89;38.85;102108.41;5108478;27;20042;-48
2023/03/03 08:01:26;;;;;;;0.30;0.30;;;;;;;17.88;39.15;102115.00;5100605;27;20058;-48
2023/03/03 08:03:51;;;;;;;0.30;0.30;;;;;;;17.88;39.01;102115.00;5080514;27;20144;-49
2023/03/03 08:06:45;;;;;;;0.30;0.30;;;;;;;17.91;39.14;102116.41;5083989;27;20470;-50
2023/03/03 08:11:48;;;;;;;0.30;0.30;;;;;;;17.90;39.06;102118.34;5127449;27;20128;-48
2023/03/03 08:14:24;;;;;;;0.30;0.30;;;;;;;17.91;39.02;102124.69;5097486;27;20514;-48
2023/03/03 08:16:49;;;;;;;0.30;0.30;;;;;;;17.91;39.09;102128.28;5101643;27;20081;-48
2023/03/03 08:19:16;;;;;;;0.30;0.30;;;;;;;17.94;39.31;102135.22;5125394;27;20035;-48
2023/03/03 08:21:42;;;;;;;0.30;0.30;;;;;;;17.93;39.30;102133.56;5105682;27;20142;-48
2023/03/03 08:24:07;;;;;;;0.30;0.30;;;;;;;17.93;39.07;102137.16;5121541;27;20190;-48
2023/03/03 08:26:33;;;;;;;0.30;0.30;;;;;;;17.94;39.12;102140.75;5125939;27;20794;-48
2023/03/03 08:29:00;;;;;;;0.30;0.30;;;;;;;17.94;38.95;102140.75;5123238;27;20345;-50
2023/03/03 08:31:26;;;;;;;0.40;0.40;;;;;;;17.94;38.84;102147.09;5125742;27;20039;-48
2023/03/03 08:34:05;;;;;;;0.30;0.30;;;;;;;17.94;39.07;102141.56;5108244;27;20051;-48
2023/03/03 08:36:31;;;;;;;0.30;0.30;;;;;;;17.95;39.35;102151.50;5127717;27;20104;-50
2023/03/03 08:38:59;;;;;;;;;;;;;;;17.95;39.28;102145.16;5122852;27;20200;-48
2023/03/03 08:41:25;;;;;;;0.30;0.30;;;;;;;17.94;39.05;102149.84;5121320;27;20272;-47
2023/03/03 08:43:51;;;;;;;0.30;0.30;;;;;;;17.96;39.10;102150.44;5126878;27;20051;-48
2023/03/03 08:46:16;;;;;;;0.30;0.30;;;;;;;17.96;38.99;102147.69;5127497;27;20061;-48
2023/03/03 08:48:42;;;;;;;0.30;0.30;;;;;;;17.96;39.03;102149.59;5128867;27;20051;-49
2023/03/03 08:51:08;;;;;;;0.35;0.35;;;;;;;17.98;39.06;102155.72;5128578;27;20046;-49
2023/03/03 08:53:35;;;;;;;0.30;0.30;;;;;;;17.97;39.14;102165.06;5130384;27;20434;-47
2023/03/03 08:56:01;;;;;;;0.30;0.30;;;;;;;17.96;39.13;102161.47;5130361;27;20491;-50
2023/03/03 08:58:27;;;;;;;0.30;0.30;;;;;;;17.95;39.09;102157.03;5121979;27;20122;-48
2023/03/03 09:01:01;;;;;;;0.30;0.30;;;;;;;17.95;39.09;102159.78;5127703;27;20082;-49
2023/03/03 09:03:26;;;;;;;0.30;0.30;;;;;;;17.96;39.16;102166.13;5122037;27;20076;-49
2023/03/03 09:05:52;;;;;;;0.30;0.30;;;;;;;17.96;39.00;102171.63;5116158;27;20047;-49
2023/03/03 09:08:18;;;;;;;0.30;0.30;;;;;;;17.96;39.07;102164.22;5116971;27;20051;-49
2023/03/03 09:10:44;;;;;;;0.30;0.30;;;;;;;17.96;39.00;102174.41;5118622;27;20239;-47
2023/03/03 09:13:15;;;;;;;0.30;0.30;;;;;;;17.96;39.10;102178.00;5115895;27;20173;-49
2023/03/03 09:15:41;;;;;;;0.30;0.30;;;;;;;17.96;39.00;102174.41;5121263;27;20104;-49
2023/03/03 09:18:18;;;;;;;0.30;0.30;;;;;;;17.95;39.02;102175.47;5121851;27;20480;-48
2023/03/03 09:26:13;;;;;;;0.30;0.30;;;;;;;17.98;39.02;102170.31;5137480;27;20953;-45
2023/03/03 09:28:39;;;;;;;0.25;0.25;;;;;;;17.97;38.98;102168.66;5122992;27;20050;-50
2023/03/03 09:31:19;;;;;;;0.30;0.30;;;;;;;17.97;38.92;102173.34;5126627;27;20051;-49
2023/03/03 09:33:48;;;;;;;0.30;0.30;;;;;;;17.96;38.95;102182.66;5116928;27;20394;-50
2023/03/03 09:36:28;;;;;;;0.30;0.30;;;;;;;17.95;38.63;102187.34;5107521;27;20093;-48
2023/03/03 09:38:56;;;;;;;0.30;0.30;;;;;;;17.94;38.98;102191.19;5097061;27;20051;-47
2023/03/03 09:41:34;;;;;;;0.73;0.57;;;;;;;17.94;38.42;102193.09;5096423;27;20518;-51
2023/03/03 09:44:27;;;;;;;0.22;0.22;;;;;;;17.90;38.56;102192.75;5088346;27;20039;-52
2023/03/03 09:47:32;;;;;;;0.30;0.30;;;;;;;17.95;38.38;102201.13;5121587;27;20051;-49
2023/03/03 09:50:38;;;;;;;0.40;0.40;;;;;;;17.89;36.65;102195.75;5090950;27;20084;-48
2023/03/03 09:53:41;;;;;;;0.30;0.30;;;;;;;17.89;38.22;102196.59;5082455;27;20097;-49
2023/03/03 09:56:16;;;;;;;0.30;0.30;;;;;;;17.92;39.52;102201.63;5098913;27;20070;-52
2023/03/03 09:59:08;;;;;;;0.30;0.30;;;;;;;17.94;39.44;102199.44;5112056;27;20347;-48
2023/03/03 10:01:49;;;;;;;0.35;0.35;;;;;;;17.96;39.47;102199.19;5095854;27;20328;-48
2023/03/03 10:04:39;;;;;;;0.30;0.30;;;;;;;17.96;39.47;102204.72;5105069;27;20070;-48
2023/03/03 10:07:27;;;;;;;0.30;0.30;;;;;;;17.94;39.47;102202.22;5105200;27;20618;-50
2023/03/03 10:10:30;;;;;;;0.30;0.30;;;;;;;17.97;39.53;102209.16;5083972;27;20053;-49
2023/03/03 10:13:21;;;;;;;0.30;0.30;;;;;;;17.97;39.42;102198.97;5099486;27;20286;-48
2023/03/03 10:18:39;;;;;;;0.30;0.30;;;;;;;17.97;39.31;102215.50;5138532;27;20922;-50
2023/03/03 10:21:10;;;;;;;0.30;0.30;;;;;;;17.97;39.34;102210.00;5116137;27;20136;-49
2023/03/03 10:24:01;;;;;;;0.38;0.38;;;;;;;17.98;39.30;102199.81;5098660;27;20038;-48
2023/03/03 10:26:44;;;;;;;0.30;0.30;;;;;;;17.98;39.20;102205.31;5094246;27;20043;-48
2023/03/03 10:29:32;;;;;;;0.30;0.30;;;;;;;17.98;39.44;102210.84;5099281;27;20047;-49
2023/03/03 10:32:24;;;;;;;0.30;0.30;;;;;;;17.97;39.28;102204.50;5098485;27;20054;-49
2023/03/03 10:35:14;;;;;;;0.30;0.30;;;;;;;17.97;39.32;102207.25;5091324;28;20039;-50
2023/03/03 10:38:20;;;;;;;0.30;0.30;;;;;;;18.00;39.31;102212.28;5076927;28;20062;-49
2023/03/03 10:41:03;;;;;;;0.40;0.40;;;;;;;17.86;37.31;102204.50;5071754;28;20641;-54
2023/03/03 10:46:23;;;;;;;0.30;0.30;;;;;;;17.83;38.43;102202.22;5136203;27;20140;-49
2023/03/03 10:49:00;;;;;;;0.30;0.30;;;;;;;17.92;38.46;102195.25;5129653;27;20506;-49
2023/03/03 10:51:36;;;;;;;0.30;0.30;;;;;;;17.96;38.79;102199.19;5114071;27;20163;-48
2023/03/03 10:54:15;;;;;;;0.30;0.30;;;;;;;17.97;38.61;102198.97;5098475;27;20138;-47
2023/03/03 10:57:06;;;;;;;0.30;0.30;;;;;;;17.99;38.27;102209.75;5139555;27;20049;-49
2023/03/03 10:59:59;;;;;;;0.30;0.30;;;;;;;18.00;38.09;102209.53;5123874;27;20142;-49
2023/03/03 11:02:36;;;;;;;0.30;0.30;;;;;;;18.00;38.91;102204.03;5117532;27;20035;-48
2023/03/03 11:08:03;;;;;;;0.30;0.30;;;;;;;18.00;37.97;102209.53;5151773;27;20124;-49
2023/03/03 11:10:44;;;;;;;0.30;0.30;;;;;;;18.02;37.52;102212.03;5104071;27;20114;-49
2023/03/03 11:13:22;;;;;;;0.30;0.30;;;;;;;18.00;37.84;102217.78;5113739;27;20046;-49
2023/03/03 11:15:59;;;;;;;0.30;0.30;;;;;;;18.01;37.00;102222.22;5088884;27;20578;-50
2023/03/03 11:18:52;;;;;;;0.30;0.30;;;;;;;18.02;37.45;102215.63;5133674;27;20134;-48
2023/03/03 11:21:25;;;;;;;0.30;0.30;;;;;;;18.02;37.86;102212.03;5097004;27;20047;-48
2023/03/03 11:23:59;;;;;;;0.30;0.30;;;;;;;18.02;38.81;102220.31;5119015;27;20449;-49
2023/03/03 11:26:49;;;;;;;0.30;0.30;;;;;;;18.02;38.63;102212.88;5121699;27;20072;-48
2023/03/03 11:29:48;;;;;;;0.30;0.30;;;;;;;18.04;37.59;102212.63;5101493;27;20513;-48
2023/03/03 11:32:22;;;;;;;0.30;0.30;;;;;;;18.03;37.29;102210.94;5128919;27;20056;-50
2023/03/03 11:34:57;;;;;;;0.30;0.30;;;;;;;18.02;36.48;102209.28;5103935;27;20491;-49
2023/03/03 11:37:41;;;;;;;0.30;0.30;;;;;;;18.02;36.63;102204.59;5079667;27;20078;-50
2023/03/03 11:40:16;;;;;;;0.40;0.40;;;;;;;18.03;37.06;102199.91;5117819;27;20054;-52
2023/03/03 11:43:03;;;;;;;0.25;0.25;;;;;;;18.00;36.88;102190.22;5127433;27;20039;-51
2023/03/03 11:45:36;;;;;;;0.30;0.30;;;;;;;17.99;36.23;102195.97;5120689;27;20047;-49
2023/03/03 11:48:13;;;;;;;0.30;0.30;;;;;;;17.97;36.42;102203.66;5109048;27;20513;-49
2023/03/03 11:50:47;;;;;;;0.40;0.40;;;;;;;17.97;36.31;102190.72;5116844;27;20526;-50
2023/03/03 11:53:44;;;;;;;0.30;0.30;;;;;;;17.75;35.18;102195.16;5091416;27;20475;-48
2023/03/03 11:56:45;;;;;;;0.40;0.40;;;;;;;17.92;35.60;102198.88;5116947;27;20047;-50
2023/03/03 11:59:36;;;;;;;0.30;0.30;;;;;;;17.98;35.79;102188.78;5105924;27;20620;-52
2023/03/03 12:02:42;;;;;;;0.30;0.30;;;;;;;18.01;36.35;102188.31;5105356;27;20119;-51